sensor_id;sensor_type;location;lat;lon;timestamp;P1;durP1;ratioP1;P2;durP2;ratioP2
74180;SDS011;62544;50.826;14.354;2023-02-04T00:02:40;2.78;;;0.51;;
74180;SDS011;62544;50.826;14.354;2023-02-04T00:06:56;2.78;;;0.51;;
74180;SDS011;62544;50.826;14.354;2023-02-04T00:11:12;2.78;;;0.51;;
74180;SDS011;62544;50.826;14.354;2023-02-04T00:15:28;2.78;;;0.51;;
74180;SDS011;62544;50.826;14.354;2023-02-04T00:19:44;2.78;;;0.51;;
74180;SDS011;62544;50.826;14.354;2023-02-04T00:24:00;2.78;;;0.51;;
74180;SDS011;62544;50.826;14.354;2023-02-04T00:28:16;0.91;;;0.14;;
74180;SDS011;62544;50.826;14.354;2023-02-04T00:32:32;0.91;;;0.14;;
74180;SDS011;62544;50.826;14.354;2023-02-04T00:36:48;0.91;;;0.14;;
74180;SDS011;62544;50.826;14.354;2023-02-04T00:41:04;0.39;;;0.13;;
74180;SDS011;62544;50.826;14.354;2023-02-04T00:45:20;0.39;;;0.13;;
74180;SDS011;62544;50.826;14.354;2023-02-04T00:49:36;0.37;;;0.15;;
74180;SDS011;62544;50.826;14.354;2023-02-04T00:53:52;0.37;;;0.15;;
74180;SDS011;62544;50.826;14.354;2023-02-04T00:58:08;0.37;;;0.15;;
74180;SDS011;62544;50.826;14.354;2023-02-04T01:02:24;0.37;;;0.15;;
74180;SDS011;62544;50.826;14.354;2023-02-04T01:06:40;0.37;;;0.15;;
74180;SDS011;62544;50.826;14.354;2023-02-04T01:10:56;0.49;;;0.19;;
74180;SDS011;62544;50.826;14.354;2023-02-04T01:15:12;0.49;;;0.19;;
74180;SDS011;62544;50.826;14.354;2023-02-04T01:19:28;0.49;;;0.19;;
74180;SDS011;62544;50.826;14.354;2023-02-04T01:23:44;0.49;;;0.19;;
74180;SDS011;62544;50.826;14.354;2023-02-04T01:28:00;0.42;;;0.17;;
74180;SDS011;62544;50.826;14.354;2023-02-04T01:32:16;0.42;;;0.17;;
74180;SDS011;62544;50.826;14.354;2023-02-04T01:36:32;0.42;;;0.17;;
74180;SDS011;62544;50.826;14.354;2023-02-04T01:40:48;0.42;;;0.31;;
74180;SDS011;62544;50.826;14.354;2023-02-04T01:45:04;0.42;;;0.31;;
74180;SDS011;62544;50.826;14.354;2023-02-04T01:49:20;0.82;;;0.41;;
74180;SDS011;62544;50.826;14.354;2023-02-04T01:53:36;0.82;;;0.41;;
74180;SDS011;62544;50.826;14.354;2023-02-04T01:57:52;0.41;;;0.34;;
74180;SDS011;62544;50.826;14.354;2023-02-04T02:06:25;0.41;;;0.34;;
74180;SDS011;62544;50.826;14.354;2023-02-04T02:10:41;0.47;;;0.36;;
74180;SDS011;62544;50.826;14.354;2023-02-04T02:14:56;0.47;;;0.36;;
74180;SDS011;62544;50.826;14.354;2023-02-04T02:19:14;0.70;;;0.39;;
74180;SDS011;62544;50.826;14.354;2023-02-04T02:27:45;1.21;;;0.67;;
74180;SDS011;62544;50.826;14.354;2023-02-04T02:32:01;1.21;;;0.67;;
74180;SDS011;62544;50.826;14.354;2023-02-04T02:36:16;1.21;;;0.67;;
74180;SDS011;62544;50.826;14.354;2023-02-04T02:40:32;0.92;;;0.67;;
74180;SDS011;62544;50.826;14.354;2023-02-04T02:44:48;0.92;;;0.67;;
74180;SDS011;62544;50.826;14.354;2023-02-04T02:49:05;0.93;;;0.72;;
74180;SDS011;62544;50.826;14.354;2023-02-04T02:53:20;0.93;;;0.72;;
74180;SDS011;62544;50.826;14.354;2023-02-04T02:57:36;1.36;;;0.99;;
74180;SDS011;62544;50.826;14.354;2023-02-04T03:01:53;1.36;;;0.99;;
74180;SDS011;62544;50.826;14.354;2023-02-04T03:06:12;1.36;;;0.99;;
74180;SDS011;62544;50.826;14.354;2023-02-04T03:10:28;1.47;;;0.92;;
74180;SDS011;62544;50.826;14.354;2023-02-04T03:14:40;1.47;;;0.92;;
74180;SDS011;62544;50.826;14.354;2023-02-04T03:18:56;0.94;;;0.82;;
74180;SDS011;62544;50.826;14.354;2023-02-04T03:23:12;0.94;;;0.82;;
74180;SDS011;62544;50.826;14.354;2023-02-04T03:27:28;1.01;;;0.87;;
74180;SDS011;62544;50.826;14.354;2023-02-04T03:31:44;1.01;;;0.87;;
74180;SDS011;62544;50.826;14.354;2023-02-04T03:36:00;1.01;;;0.87;;
74180;SDS011;62544;50.826;14.354;2023-02-04T03:40:16;1.49;;;0.86;;
74180;SDS011;62544;50.826;14.354;2023-02-04T03:44:32;1.49;;;0.86;;
74180;SDS011;62544;50.826;14.354;2023-02-04T03:48:48;1.33;;;0.96;;
74180;SDS011;62544;50.826;14.354;2023-02-04T03:53:04;1.33;;;0.96;;
74180;SDS011;62544;50.826;14.354;2023-02-04T03:57:20;1.47;;;0.93;;
74180;SDS011;62544;50.826;14.354;2023-02-04T04:01:36;1.47;;;0.93;;
74180;SDS011;62544;50.826;14.354;2023-02-04T04:05:52;1.47;;;0.93;;
74180;SDS011;62544;50.826;14.354;2023-02-04T04:10:08;1.30;;;0.95;;
74180;SDS011;62544;50.826;14.354;2023-02-04T04:14:24;1.30;;;0.95;;
74180;SDS011;62544;50.826;14.354;2023-02-04T04:18:40;1.82;;;0.98;;
74180;SDS011;62544;50.826;14.354;2023-02-04T04:22:56;1.82;;;0.98;;
74180;SDS011;62544;50.826;14.354;2023-02-04T04:27:12;1.44;;;0.95;;
74180;SDS011;62544;50.826;14.354;2023-02-04T04:31:28;1.44;;;0.95;;
74180;SDS011;62544;50.826;14.354;2023-02-04T04:35:44;1.44;;;0.95;;
74180;SDS011;62544;50.826;14.354;2023-02-04T04:40:00;1.33;;;0.90;;
74180;SDS011;62544;50.826;14.354;2023-02-04T04:44:16;1.33;;;0.90;;
74180;SDS011;62544;50.826;14.354;2023-02-04T04:48:32;1.80;;;1.00;;
74180;SDS011;62544;50.826;14.354;2023-02-04T04:52:48;1.80;;;1.00;;
74180;SDS011;62544;50.826;14.354;2023-02-04T04:57:04;1.80;;;1.00;;
74180;SDS011;62544;50.826;14.354;2023-02-04T05:01:20;1.61;;;0.96;;
74180;SDS011;62544;50.826;14.354;2023-02-04T05:05:36;1.61;;;0.96;;
74180;SDS011;62544;50.826;14.354;2023-02-04T05:09:52;2.02;;;0.85;;
74180;SDS011;62544;50.826;14.354;2023-02-04T05:14:09;2.02;;;0.85;;
74180;SDS011;62544;50.826;14.354;2023-02-04T05:18:24;1.40;;;0.70;;
74180;SDS011;62544;50.826;14.354;2023-02-04T05:22:40;1.40;;;0.70;;
74180;SDS011;62544;50.826;14.354;2023-02-04T05:26:56;1.40;;;0.70;;
74180;SDS011;62544;50.826;14.354;2023-02-04T05:31:12;1.29;;;0.74;;
74180;SDS011;62544;50.826;14.354;2023-02-04T05:35:28;1.29;;;0.74;;
74180;SDS011;62544;50.826;14.354;2023-02-04T05:39:44;0.96;;;0.76;;
74180;SDS011;62544;50.826;14.354;2023-02-04T05:44:00;0.96;;;0.76;;
74180;SDS011;62544;50.826;14.354;2023-02-04T05:48:16;1.15;;;0.84;;
74180;SDS011;62544;50.826;14.354;2023-02-04T05:52:32;1.15;;;0.84;;
74180;SDS011;62544;50.826;14.354;2023-02-04T05:56:48;1.15;;;0.84;;
74180;SDS011;62544;50.826;14.354;2023-02-04T06:01:04;1.36;;;0.79;;
74180;SDS011;62544;50.826;14.354;2023-02-04T06:05:20;1.36;;;0.79;;
74180;SDS011;62544;50.826;14.354;2023-02-04T06:09:36;1.21;;;0.81;;
74180;SDS011;62544;50.826;14.354;2023-02-04T06:13:52;1.21;;;0.81;;
74180;SDS011;62544;50.826;14.354;2023-02-04T06:18:08;1.34;;;0.70;;
74180;SDS011;62544;50.826;14.354;2023-02-04T06:22:24;1.34;;;0.70;;
74180;SDS011;62544;50.826;14.354;2023-02-04T06:26:40;1.34;;;0.70;;
74180;SDS011;62544;50.826;14.354;2023-02-04T06:30:56;1.04;;;0.86;;
74180;SDS011;62544;50.826;14.354;2023-02-04T06:35:12;1.04;;;0.86;;
74180;SDS011;62544;50.826;14.354;2023-02-04T06:39:28;1.21;;;0.64;;
74180;SDS011;62544;50.826;14.354;2023-02-04T06:43:44;1.21;;;0.64;;
74180;SDS011;62544;50.826;14.354;2023-02-04T06:48:00;2.10;;;0.66;;
74180;SDS011;62544;50.826;14.354;2023-02-04T06:52:16;2.10;;;0.66;;
74180;SDS011;62544;50.826;14.354;2023-02-04T06:56:32;2.10;;;0.66;;
74180;SDS011;62544;50.826;14.354;2023-02-04T07:00:48;1.47;;;0.74;;
74180;SDS011;62544;50.826;14.354;2023-02-04T07:05:04;1.47;;;0.74;;
74180;SDS011;62544;50.826;14.354;2023-02-04T07:09:20;0.79;;;0.66;;
74180;SDS011;62544;50.826;14.354;2023-02-04T07:13:36;0.79;;;0.66;;
74180;SDS011;62544;50.826;14.354;2023-02-04T07:17:52;1.65;;;0.67;;
74180;SDS011;62544;50.826;14.354;2023-02-04T07:22:08;1.65;;;0.67;;
74180;SDS011;62544;50.826;14.354;2023-02-04T07:26:24;1.65;;;0.67;;
74180;SDS011;62544;50.826;14.354;2023-02-04T07:30:40;2.17;;;0.87;;
74180;SDS011;62544;50.826;14.354;2023-02-04T07:34:56;2.17;;;0.87;;
74180;SDS011;62544;50.826;14.354;2023-02-04T07:39:12;1.62;;;0.99;;
74180;SDS011;62544;50.826;14.354;2023-02-04T07:43:28;1.62;;;0.99;;
74180;SDS011;62544;50.826;14.354;2023-02-04T07:47:44;2.22;;;0.92;;
74180;SDS011;62544;50.826;14.354;2023-02-04T07:52:00;2.22;;;0.92;;
74180;SDS011;62544;50.826;14.354;2023-02-04T07:56:16;2.22;;;0.92;;
74180;SDS011;62544;50.826;14.354;2023-02-04T08:00:32;2.20;;;1.10;;
74180;SDS011;62544;50.826;14.354;2023-02-04T08:04:48;2.20;;;1.10;;
74180;SDS011;62544;50.826;14.354;2023-02-04T08:09:04;2.33;;;0.93;;
74180;SDS011;62544;50.826;14.354;2023-02-04T08:13:20;2.33;;;0.93;;
74180;SDS011;62544;50.826;14.354;2023-02-04T08:17:36;3.73;;;2.56;;
74180;SDS011;62544;50.826;14.354;2023-02-04T08:21:52;3.73;;;2.56;;
74180;SDS011;62544;50.826;14.354;2023-02-04T08:26:08;3.73;;;2.56;;
74180;SDS011;62544;50.826;14.354;2023-02-04T08:30:24;1.83;;;0.91;;
74180;SDS011;62544;50.826;14.354;2023-02-04T08:34:40;1.83;;;0.91;;
74180;SDS011;62544;50.826;14.354;2023-02-04T08:38:56;2.75;;;1.26;;
74180;SDS011;62544;50.826;14.354;2023-02-04T08:43:12;2.75;;;1.26;;
74180;SDS011;62544;50.826;14.354;2023-02-04T08:47:28;2.09;;;1.12;;
74180;SDS011;62544;50.826;14.354;2023-02-04T08:51:44;2.09;;;1.12;;
74180;SDS011;62544;50.826;14.354;2023-02-04T08:56:00;2.09;;;1.12;;
74180;SDS011;62544;50.826;14.354;2023-02-04T09:00:16;3.06;;;0.97;;
74180;SDS011;62544;50.826;14.354;2023-02-04T09:04:32;3.06;;;0.97;;
74180;SDS011;62544;50.826;14.354;2023-02-04T09:08:48;3.82;;;1.56;;
74180;SDS011;62544;50.826;14.354;2023-02-04T09:13:04;3.82;;;1.56;;
74180;SDS011;62544;50.826;14.354;2023-02-04T09:17:20;3.82;;;0.99;;
74180;SDS011;62544;50.826;14.354;2023-02-04T09:21:36;3.82;;;0.99;;
74180;SDS011;62544;50.826;14.354;2023-02-04T09:25:52;3.82;;;0.99;;
74180;SDS011;62544;50.826;14.354;2023-02-04T09:30:08;3.82;;;0.99;;
74180;SDS011;62544;50.826;14.354;2023-02-04T09:34:24;3.82;;;0.99;;
74180;SDS011;62544;50.826;14.354;2023-02-04T09:38:40;4.39;;;1.06;;
74180;SDS011;62544;50.826;14.354;2023-02-04T09:42:56;4.39;;;1.06;;
74180;SDS011;62544;50.826;14.354;2023-02-04T09:47:12;2.73;;;1.09;;
74180;SDS011;62544;50.826;14.354;2023-02-04T09:51:28;2.73;;;1.09;;
74180;SDS011;62544;50.826;14.354;2023-02-04T09:55:44;2.73;;;1.09;;
74180;SDS011;62544;50.826;14.354;2023-02-04T10:00:00;1.90;;;0.95;;
74180;SDS011;62544;50.826;14.354;2023-02-04T10:04:16;1.90;;;0.95;;
74180;SDS011;62544;50.826;14.354;2023-02-04T10:08:32;1.91;;;1.04;;
74180;SDS011;62544;50.826;14.354;2023-02-04T10:12:48;1.91;;;1.04;;
74180;SDS011;62544;50.826;14.354;2023-02-04T10:17:04;1.91;;;1.04;;
74180;SDS011;62544;50.826;14.354;2023-02-04T10:21:20;3.43;;;0.92;;
74180;SDS011;62544;50.826;14.354;2023-02-04T10:25:36;3.43;;;0.92;;
74180;SDS011;62544;50.826;14.354;2023-02-04T10:29:57;3.43;;;0.92;;
74180;SDS011;62544;50.826;14.354;2023-02-04T10:38:24;3.99;;;1.38;;
74180;SDS011;62544;50.826;14.354;2023-02-04T10:42:46;3.99;;;1.38;;
74180;SDS011;62544;50.826;14.354;2023-02-04T10:47:00;3.99;;;1.38;;
74180;SDS011;62544;50.826;14.354;2023-02-04T10:51:12;3.99;;;1.38;;
74180;SDS011;62544;50.826;14.354;2023-02-04T10:55:28;3.99;;;1.38;;
74180;SDS011;62544;50.826;14.354;2023-02-04T10:59:44;3.99;;;1.38;;
74180;SDS011;62544;50.826;14.354;2023-02-04T11:04:00;3.99;;;1.38;;
74180;SDS011;62544;50.826;14.354;2023-02-04T11:08:22;8.52;;;3.49;;
74180;SDS011;62544;50.826;14.354;2023-02-04T11:12:36;8.52;;;3.49;;
74180;SDS011;62544;50.826;14.354;2023-02-04T11:16:48;8.52;;;3.49;;
74180;SDS011;62544;50.826;14.354;2023-02-04T11:21:04;8.52;;;3.49;;
74180;SDS011;62544;50.826;14.354;2023-02-04T11:29:36;2.93;;;1.76;;
74180;SDS011;62544;50.826;14.354;2023-02-04T11:38:21;3.23;;;1.05;;
74180;SDS011;62544;50.826;14.354;2023-02-04T11:42:40;3.23;;;1.05;;
74180;SDS011;62544;50.826;14.354;2023-02-04T11:46:40;3.23;;;1.05;;
74180;SDS011;62544;50.826;14.354;2023-02-04T11:50:56;3.23;;;1.05;;
74180;SDS011;62544;50.826;14.354;2023-02-04T11:55:12;3.23;;;1.05;;
74180;SDS011;62544;50.826;14.354;2023-02-04T11:59:28;5.05;;;1.97;;
74180;SDS011;62544;50.826;14.354;2023-02-04T12:03:47;5.05;;;1.97;;
74180;SDS011;62544;50.826;14.354;2023-02-04T12:08:07;5.05;;;1.97;;
74180;SDS011;62544;50.826;14.354;2023-02-04T12:12:26;5.05;;;1.97;;
74180;SDS011;62544;50.826;14.354;2023-02-04T12:16:40;5.05;;;1.97;;
74180;SDS011;62544;50.826;14.354;2023-02-04T12:20:48;8.88;;;6.44;;
74180;SDS011;62544;50.826;14.354;2023-02-04T12:25:04;8.88;;;6.44;;
74180;SDS011;62544;50.826;14.354;2023-02-04T12:29:20;8.88;;;6.44;;
74180;SDS011;62544;50.826;14.354;2023-02-04T12:33:36;8.88;;;6.44;;
74180;SDS011;62544;50.826;14.354;2023-02-04T12:37:52;8.88;;;6.44;;
74180;SDS011;62544;50.826;14.354;2023-02-04T12:42:08;8.88;;;6.44;;
74180;SDS011;62544;50.826;14.354;2023-02-04T12:46:24;8.88;;;6.44;;
74180;SDS011;62544;50.826;14.354;2023-02-04T12:50:40;3.06;;;1.08;;
74180;SDS011;62544;50.826;14.354;2023-02-04T12:54:56;3.06;;;1.08;;
74180;SDS011;62544;50.826;14.354;2023-02-04T12:59:12;2.73;;;0.79;;
74180;SDS011;62544;50.826;14.354;2023-02-04T13:03:28;2.73;;;0.79;;
74180;SDS011;62544;50.826;14.354;2023-02-04T13:07:44;2.73;;;0.79;;
74180;SDS011;62544;50.826;14.354;2023-02-04T13:12:00;2.73;;;0.79;;
74180;SDS011;62544;50.826;14.354;2023-02-04T13:16:16;2.73;;;0.79;;
74180;SDS011;62544;50.826;14.354;2023-02-04T13:20:32;2.73;;;0.79;;
74180;SDS011;62544;50.826;14.354;2023-02-04T13:24:48;2.73;;;0.79;;
74180;SDS011;62544;50.826;14.354;2023-02-04T13:29:04;1.74;;;0.58;;
74180;SDS011;62544;50.826;14.354;2023-02-04T13:33:20;1.74;;;0.58;;
74180;SDS011;62544;50.826;14.354;2023-02-04T13:37:36;0.98;;;0.49;;
74180;SDS011;62544;50.826;14.354;2023-02-04T13:41:52;0.98;;;0.49;;
74180;SDS011;62544;50.826;14.354;2023-02-04T13:46:08;0.98;;;0.49;;
74180;SDS011;62544;50.826;14.354;2023-02-04T13:50:24;2.28;;;0.85;;
74180;SDS011;62544;50.826;14.354;2023-02-04T13:54:40;2.28;;;0.85;;
74180;SDS011;62544;50.826;14.354;2023-02-04T13:58:56;2.28;;;0.85;;
74180;SDS011;62544;50.826;14.354;2023-02-04T14:03:12;2.28;;;0.85;;
74180;SDS011;62544;50.826;14.354;2023-02-04T14:07:28;2.28;;;0.85;;
74180;SDS011;62544;50.826;14.354;2023-02-04T14:11:44;2.28;;;0.85;;
74180;SDS011;62544;50.826;14.354;2023-02-04T14:16:00;2.28;;;0.85;;
74180;SDS011;62544;50.826;14.354;2023-02-04T14:20:16;4.07;;;1.64;;
74180;SDS011;62544;50.826;14.354;2023-02-04T14:24:32;4.07;;;1.64;;
74180;SDS011;62544;50.826;14.354;2023-02-04T14:28:48;4.07;;;1.64;;
74180;SDS011;62544;50.826;14.354;2023-02-04T14:33:04;4.07;;;1.64;;
74180;SDS011;62544;50.826;14.354;2023-02-04T14:37:20;4.07;;;1.64;;
74180;SDS011;62544;50.826;14.354;2023-02-04T14:41:36;4.07;;;1.64;;
74180;SDS011;62544;50.826;14.354;2023-02-04T14:45:52;4.07;;;1.64;;
74180;SDS011;62544;50.826;14.354;2023-02-04T14:50:09;1.60;;;0.51;;
74180;SDS011;62544;50.826;14.354;2023-02-04T14:54:24;1.60;;;0.51;;
74180;SDS011;62544;50.826;14.354;2023-02-04T14:58:40;1.36;;;0.56;;
74180;SDS011;62544;50.826;14.354;2023-02-04T15:02:56;1.36;;;0.56;;
74180;SDS011;62544;50.826;14.354;2023-02-04T15:07:12;1.93;;;0.64;;
74180;SDS011;62544;50.826;14.354;2023-02-04T15:11:28;1.93;;;0.64;;
74180;SDS011;62544;50.826;14.354;2023-02-04T15:15:44;1.93;;;0.64;;
74180;SDS011;62544;50.826;14.354;2023-02-04T15:20:00;3.69;;;1.73;;
74180;SDS011;62544;50.826;14.354;2023-02-04T15:24:16;3.69;;;1.73;;
74180;SDS011;62544;50.826;14.354;2023-02-04T15:28:32;2.64;;;0.81;;
74180;SDS011;62544;50.826;14.354;2023-02-04T15:32:48;2.64;;;0.81;;
74180;SDS011;62544;50.826;14.354;2023-02-04T15:37:04;2.64;;;0.81;;
74180;SDS011;62544;50.826;14.354;2023-02-04T15:41:20;3.67;;;1.47;;
74180;SDS011;62544;50.826;14.354;2023-02-04T15:45:36;3.67;;;1.47;;
74180;SDS011;62544;50.826;14.354;2023-02-04T15:49:52;4.39;;;1.12;;
74180;SDS011;62544;50.826;14.354;2023-02-04T15:54:08;4.39;;;1.12;;
74180;SDS011;62544;50.826;14.354;2023-02-04T15:58:24;8.21;;;4.39;;
74180;SDS011;62544;50.826;14.354;2023-02-04T16:02:40;8.21;;;4.39;;
74180;SDS011;62544;50.826;14.354;2023-02-04T16:06:56;8.21;;;4.39;;
74180;SDS011;62544;50.826;14.354;2023-02-04T16:11:12;5.25;;;3.03;;
74180;SDS011;62544;50.826;14.354;2023-02-04T16:15:28;5.25;;;3.03;;
74180;SDS011;62544;50.826;14.354;2023-02-04T16:19:44;3.18;;;1.55;;
74180;SDS011;62544;50.826;14.354;2023-02-04T16:24:00;3.18;;;1.55;;
74180;SDS011;62544;50.826;14.354;2023-02-04T16:28:16;6.27;;;3.33;;
74180;SDS011;62544;50.826;14.354;2023-02-04T16:32:32;6.27;;;3.33;;
74180;SDS011;62544;50.826;14.354;2023-02-04T16:36:50;6.27;;;3.33;;
74180;SDS011;62544;50.826;14.354;2023-02-04T16:41:04;6.95;;;4.55;;
74180;SDS011;62544;50.826;14.354;2023-02-04T16:45:19;6.95;;;4.55;;
74180;SDS011;62544;50.826;14.354;2023-02-04T16:49:36;4.35;;;2.21;;
74180;SDS011;62544;50.826;14.354;2023-02-04T16:53:52;4.35;;;2.21;;
74180;SDS011;62544;50.826;14.354;2023-02-04T16:58:08;2.71;;;1.67;;
74180;SDS011;62544;50.826;14.354;2023-02-04T17:02:24;2.71;;;1.67;;
74180;SDS011;62544;50.826;14.354;2023-02-04T17:06:40;2.71;;;1.67;;
74180;SDS011;62544;50.826;14.354;2023-02-04T17:10:55;2.35;;;1.14;;
74180;SDS011;62544;50.826;14.354;2023-02-04T17:15:11;2.35;;;1.14;;
74180;SDS011;62544;50.826;14.354;2023-02-04T17:19:27;3.09;;;1.69;;
74180;SDS011;62544;50.826;14.354;2023-02-04T17:23:43;3.09;;;1.69;;
74180;SDS011;62544;50.826;14.354;2023-02-04T17:27:59;3.35;;;1.60;;
74180;SDS011;62544;50.826;14.354;2023-02-04T17:32:15;3.35;;;1.60;;
74180;SDS011;62544;50.826;14.354;2023-02-04T17:36:31;3.35;;;1.60;;
74180;SDS011;62544;50.826;14.354;2023-02-04T17:40:48;4.16;;;1.58;;
74180;SDS011;62544;50.826;14.354;2023-02-04T17:45:04;4.16;;;1.58;;
74180;SDS011;62544;50.826;14.354;2023-02-04T17:49:19;2.78;;;1.39;;
74180;SDS011;62544;50.826;14.354;2023-02-04T17:53:35;2.78;;;1.39;;
74180;SDS011;62544;50.826;14.354;2023-02-04T17:57:54;12.13;;;6.10;;
74180;SDS011;62544;50.826;14.354;2023-02-04T18:02:16;12.13;;;6.10;;
74180;SDS011;62544;50.826;14.354;2023-02-04T18:06:24;12.13;;;6.10;;
74180;SDS011;62544;50.826;14.354;2023-02-04T18:10:43;4.10;;;1.34;;
74180;SDS011;62544;50.826;14.354;2023-02-04T18:14:57;4.10;;;1.34;;
74180;SDS011;62544;50.826;14.354;2023-02-04T18:19:16;3.88;;;0.94;;
74180;SDS011;62544;50.826;14.354;2023-02-04T18:23:28;3.88;;;0.94;;
74180;SDS011;62544;50.826;14.354;2023-02-04T18:27:44;3.43;;;1.04;;
74180;SDS011;62544;50.826;14.354;2023-02-04T18:32:18;3.43;;;1.04;;
74180;SDS011;62544;50.826;14.354;2023-02-04T18:36:17;3.43;;;1.04;;
74180;SDS011;62544;50.826;14.354;2023-02-04T18:40:32;5.19;;;2.56;;
74180;SDS011;62544;50.826;14.354;2023-02-04T18:44:47;5.19;;;2.56;;
74180;SDS011;62544;50.826;14.354;2023-02-04T18:49:04;2.20;;;0.83;;
74180;SDS011;62544;50.826;14.354;2023-02-04T18:53:23;2.20;;;0.83;;
74180;SDS011;62544;50.826;14.354;2023-02-04T18:57:36;2.17;;;0.97;;
74180;SDS011;62544;50.826;14.354;2023-02-04T19:01:52;2.17;;;0.97;;
74180;SDS011;62544;50.826;14.354;2023-02-04T19:10:28;4.55;;;1.73;;
74180;SDS011;62544;50.826;14.354;2023-02-04T19:14:40;4.55;;;1.73;;
74180;SDS011;62544;50.826;14.354;2023-02-04T19:18:55;3.51;;;1.25;;
74180;SDS011;62544;50.826;14.354;2023-02-04T19:23:16;3.51;;;1.25;;
74180;SDS011;62544;50.826;14.354;2023-02-04T19:27:28;3.47;;;1.55;;
74180;SDS011;62544;50.826;14.354;2023-02-04T19:31:43;3.47;;;1.55;;
74180;SDS011;62544;50.826;14.354;2023-02-04T19:36:07;3.47;;;1.55;;
74180;SDS011;62544;50.826;14.354;2023-02-04T19:40:35;2.96;;;1.48;;
74180;SDS011;62544;50.826;14.354;2023-02-04T19:44:33;2.96;;;1.48;;
74180;SDS011;62544;50.826;14.354;2023-02-04T19:48:48;2.26;;;1.05;;
74180;SDS011;62544;50.826;14.354;2023-02-04T19:57:21;2.69;;;1.08;;
74180;SDS011;62544;50.826;14.354;2023-02-04T20:01:38;2.69;;;1.08;;
74180;SDS011;62544;50.826;14.354;2023-02-04T20:05:52;2.69;;;1.08;;
74180;SDS011;62544;50.826;14.354;2023-02-04T20:14:42;1.24;;;0.54;;
74180;SDS011;62544;50.826;14.354;2023-02-04T20:18:39;1.45;;;0.77;;
74180;SDS011;62544;50.826;14.354;2023-02-04T20:22:59;1.45;;;0.77;;
74180;SDS011;62544;50.826;14.354;2023-02-04T20:27:19;2.50;;;0.95;;
74180;SDS011;62544;50.826;14.354;2023-02-04T20:31:27;2.50;;;0.95;;
74180;SDS011;62544;50.826;14.354;2023-02-04T20:40:00;2.63;;;1.10;;
74180;SDS011;62544;50.826;14.354;2023-02-04T20:44:25;2.63;;;1.10;;
74180;SDS011;62544;50.826;14.354;2023-02-04T20:48:35;3.75;;;1.02;;
74180;SDS011;62544;50.826;14.354;2023-02-04T20:57:13;3.75;;;1.02;;
74180;SDS011;62544;50.826;14.354;2023-02-04T21:05:36;1.87;;;0.89;;
74180;SDS011;62544;50.826;14.354;2023-02-04T21:09:52;2.04;;;0.98;;
74180;SDS011;62544;50.826;14.354;2023-02-04T21:14:08;2.04;;;0.98;;
74180;SDS011;62544;50.826;14.354;2023-02-04T21:18:24;2.94;;;1.34;;
74180;SDS011;62544;50.826;14.354;2023-02-04T21:22:40;2.94;;;1.34;;
74180;SDS011;62544;50.826;14.354;2023-02-04T21:26:56;2.94;;;1.34;;
74180;SDS011;62544;50.826;14.354;2023-02-04T21:31:12;2.34;;;1.26;;
74180;SDS011;62544;50.826;14.354;2023-02-04T21:35:28;2.34;;;1.26;;
74180;SDS011;62544;50.826;14.354;2023-02-04T21:39:44;5.21;;;2.06;;
74180;SDS011;62544;50.826;14.354;2023-02-04T21:44:00;5.21;;;2.06;;
74180;SDS011;62544;50.826;14.354;2023-02-04T21:48:16;5.90;;;2.45;;
74180;SDS011;62544;50.826;14.354;2023-02-04T21:52:32;5.90;;;2.45;;
74180;SDS011;62544;50.826;14.354;2023-02-04T21:56:48;5.90;;;2.45;;
74180;SDS011;62544;50.826;14.354;2023-02-04T22:01:06;6.16;;;3.86;;
74180;SDS011;62544;50.826;14.354;2023-02-04T22:05:20;6.16;;;3.86;;
74180;SDS011;62544;50.826;14.354;2023-02-04T22:09:36;3.99;;;1.63;;
74180;SDS011;62544;50.826;14.354;2023-02-04T22:13:52;3.99;;;1.63;;
74180;SDS011;62544;50.826;14.354;2023-02-04T22:18:08;2.94;;;1.25;;
74180;SDS011;62544;50.826;14.354;2023-02-04T22:22:24;2.94;;;1.25;;
74180;SDS011;62544;50.826;14.354;2023-02-04T22:26:40;2.94;;;1.25;;
74180;SDS011;62544;50.826;14.354;2023-02-04T22:30:56;6.72;;;1.83;;
74180;SDS011;62544;50.826;14.354;2023-02-04T22:35:12;6.72;;;1.83;;
74180;SDS011;62544;50.826;14.354;2023-02-04T22:39:28;3.77;;;1.75;;
74180;SDS011;62544;50.826;14.354;2023-02-04T22:43:44;3.77;;;1.75;;
74180;SDS011;62544;50.826;14.354;2023-02-04T22:48:00;3.71;;;1.55;;
74180;SDS011;62544;50.826;14.354;2023-02-04T22:52:17;3.71;;;1.55;;
74180;SDS011;62544;50.826;14.354;2023-02-04T22:56:32;3.71;;;1.55;;
74180;SDS011;62544;50.826;14.354;2023-02-04T23:00:48;6.09;;;2.32;;
74180;SDS011;62544;50.826;14.354;2023-02-04T23:05:05;6.09;;;2.32;;
74180;SDS011;62544;50.826;14.354;2023-02-04T23:09:20;6.28;;;1.36;;
74180;SDS011;62544;50.826;14.354;2023-02-04T23:13:36;6.28;;;1.36;;
74180;SDS011;62544;50.826;14.354;2023-02-04T23:17:52;2.35;;;0.97;;
74180;SDS011;62544;50.826;14.354;2023-02-04T23:22:08;2.35;;;0.97;;
74180;SDS011;62544;50.826;14.354;2023-02-04T23:26:24;2.35;;;0.97;;
74180;SDS011;62544;50.826;14.354;2023-02-04T23:30:40;4.73;;;2.01;;
74180;SDS011;62544;50.826;14.354;2023-02-04T23:34:56;4.73;;;2.01;;
74180;SDS011;62544;50.826;14.354;2023-02-04T23:39:12;4.68;;;2.27;;
74180;SDS011;62544;50.826;14.354;2023-02-04T23:43:28;4.68;;;2.27;;
74180;SDS011;62544;50.826;14.354;2023-02-04T23:47:44;4.29;;;1.73;;
74180;SDS011;62544;50.826;14.354;2023-02-04T23:52:00;4.29;;;1.73;;
74180;SDS011;62544;50.826;14.354;2023-02-04T23:56:16;4.29;;;1.73;;
